This demonstration page uses our WeatherBlox Daily Observations layout. Learn more.

41.55636, -103.73856

Hourly Observations for April 20, 2019

Temp ( °F °C ) Dew Point ( °F °C ) Humidity (%) Winds ( mph kmh ) Pressure ( in mb ) Visibility ( mi km ) Precip ( " mm )
12:58 am 00:58 Clear 67 19.7 33 0.6 28 28 ENE 5 7 29.71 1006 10 16.0934 0 0
1:58 am 01:58 Clear 64 17.5 31 -0.8 29 29 E 5 7 29.75 1007 10 16.0934 0 0
2:58 am 02:58 Clear 55 12.8 35 1.7 47 47 S 8 13 29.85 1011 10 16.0934 0 0
3:58 am 03:58 Clear 52 11 36 2.2 55 55 SSW 10 17 29.88 1012 10 16.0934 0 0
4:58 am 04:58 Clear 49 9.7 35 1.8 58 58 SSW 12 19 29.89 1012 10 16.0934 0 0
5:58 am 05:58 Clear 47 8.6 35 1.6 62 62 SSW 15 24 29.9 1013 10 16.0934 0 0
6:58 am 06:58 Clear 45 7.2 35 1.7 68 68 W 3 6 29.91 1013 10 16.0934 0 0
7:58 am 07:58 Clear 46 7.8 35 1.5 65 65 SW 16 26 29.88 1012 10 16.0934 0 0
8:58 am 08:58 Clear 47 8.3 32 0.2 57 57 SW 12 19 29.8 1009 10 16.0934 0 0
9:58 am 09:58 Clear 50 10 30 -1.2 46 46 WSW 14 22 29.78 1009 10 16.0934 0 0
10:58 am 10:58 Clear 51 10.8 29 -1.8 42 42 W 14 22 29.78 1008 10 16.0934 0 0
11:58 am 11:58 Mostly Clear 51 10.3 27 -2.6 41 41 W 16 26 29.78 1009 10 16.0934 0 0
12:58 pm 12:58 Sunny 51 10.6 28 -2.3 41 41 W 14 22 29.8 1009 10 16.0934 0 0
1:58 pm 13:58 Sunny 62 16.6 30 -1.3 30 30 WSW 15 24 29.78 1008 10 16.0934 0 0
2:58 pm 14:58 Sunny 65 18.2 29 -1.4 27 27 WSW 16 26 29.8 1009 10 16.0934 0 0
3:58 pm 15:58 Sunny 68 20.2 24 -4.7 18 18 WSW 17 28 29.78 1009 10 16.0934 0 0
4:58 pm 16:58 Sunny 72 22.1 23 -5.1 16 16 WSW 17 28 29.76 1008 10 16.0934 0 0
5:58 pm 17:58 Sunny 73 22.5 20 -6.5 14 14 W 20 31 29.74 1007 10 16.0934 0 0
6:58 pm 18:58 Sunny 74 23.1 22 -5.5 14 14 WNW 17 28 29.72 1007 10 16.0934 0 0
7:58 pm 19:58 Sunny 73 22.8 20 -6.8 13 13 WSW 12 19 29.71 1006 10 16.0934 0 0
8:58 pm 20:58 Sunny 74 23.6 21 -6.1 13 13 SW 8 13 29.67 1005 10 16.0934 0 0
9:58 pm 21:58 Sunny 75 24 24 -4.4 15 15 W 7 11 29.62 1003 10 16.0934 0 0
10:58 pm 22:58 Sunny 75 24 19 -7.1 12 12 WNW 3 6 29.6 1002 10 16.0934 0 0
11:58 pm 23:58 Mostly Sunny 74 23.4 21 -6 14 14 E 5 7 29.6 1002 10 16.0934 0 0

Powered by AerisWeather